sensor_id;sensor_type;location;lat;lon;timestamp;pressure;altitude;pressure_sealevel;temperature;humidity
77041;BME280;65974;42.664;23.264;2023-04-06T00:00:32;94137.78;;;-0.17;65.45
77041;BME280;65974;42.664;23.264;2023-04-06T00:02:57;94138.50;;;-0.66;67.62
77041;BME280;65974;42.664;23.264;2023-04-06T00:05:23;94123.66;;;-0.45;67.63
77041;BME280;65974;42.664;23.264;2023-04-06T00:07:49;94121.16;;;-0.12;66.27
77041;BME280;65974;42.664;23.264;2023-04-06T00:10:15;94120.47;;;-0.59;67.02
77041;BME280;65974;42.664;23.264;2023-04-06T00:12:44;94119.03;;;-0.48;66.68
77041;BME280;65974;42.664;23.264;2023-04-06T00:15:10;94105.00;;;-0.14;66.02
77041;BME280;65974;42.664;23.264;2023-04-06T00:17:35;94100.03;;;-0.07;64.90
77041;BME280;65974;42.664;23.264;2023-04-06T00:20:01;94096.91;;;-0.50;66.43
77041;BME280;65974;42.664;23.264;2023-04-06T00:22:26;94093.38;;;-0.25;66.73
77041;BME280;65974;42.664;23.264;2023-04-06T00:24:53;94093.41;;;0.16;64.68
77041;BME280;65974;42.664;23.264;2023-04-06T00:27:18;94094.63;;;-0.52;65.98
77041;BME280;65974;42.664;23.264;2023-04-06T00:29:44;94091.50;;;-0.45;66.12
77041;BME280;65974;42.664;23.264;2023-04-06T00:32:10;94093.31;;;-0.17;65.41
77041;BME280;65974;42.664;23.264;2023-04-06T00:34:35;94091.34;;;-0.20;65.03
77041;BME280;65974;42.664;23.264;2023-04-06T00:37:01;94091.66;;;-0.50;66.58
77041;BME280;65974;42.664;23.264;2023-04-06T00:39:26;94087.25;;;-0.29;66.45
77041;BME280;65974;42.664;23.264;2023-04-06T00:41:52;94094.09;;;0.05;65.04
77041;BME280;65974;42.664;23.264;2023-04-06T00:44:18;94089.66;;;-0.45;66.01
77041;BME280;65974;42.664;23.264;2023-04-06T00:46:44;94091.19;;;-0.44;66.42
77041;BME280;65974;42.664;23.264;2023-04-06T00:49:10;94091.97;;;-0.23;66.46
77041;BME280;65974;42.664;23.264;2023-04-06T00:51:35;94087.06;;;-0.24;65.54
77041;BME280;65974;42.664;23.264;2023-04-06T00:54:01;94080.44;;;-0.51;67.31
77041;BME280;65974;42.664;23.264;2023-04-06T00:56:26;94086.78;;;-0.31;67.74
77041;BME280;65974;42.664;23.264;2023-04-06T00:58:52;94082.53;;;0.06;65.79
77041;BME280;65974;42.664;23.264;2023-04-06T01:01:18;94085.72;;;-0.59;67.30
77041;BME280;65974;42.664;23.264;2023-04-06T01:03:44;94090.72;;;-0.46;67.53
77041;BME280;65974;42.664;23.264;2023-04-06T01:06:12;94096.19;;;-0.10;66.81
77041;BME280;65974;42.664;23.264;2023-04-06T01:08:38;94092.09;;;-0.19;66.03
77041;BME280;65974;42.664;23.264;2023-04-06T01:11:03;94085.66;;;-0.51;67.18
77041;BME280;65974;42.664;23.264;2023-04-06T01:13:29;94082.16;;;-0.26;68.42
77041;BME280;65974;42.664;23.264;2023-04-06T01:15:54;94091.22;;;0.18;65.68
77041;BME280;65974;42.664;23.264;2023-04-06T01:18:26;94077.53;;;-0.49;67.28
77041;BME280;65974;42.664;23.264;2023-04-06T01:20:51;94070.38;;;-0.40;67.47
77041;BME280;65974;42.664;23.264;2023-04-06T01:23:17;94079.66;;;-0.02;66.70
77041;BME280;65974;42.664;23.264;2023-04-06T01:25:42;94071.31;;;-0.16;65.80
77041;BME280;65974;42.664;23.264;2023-04-06T01:28:08;94079.03;;;-0.48;67.32
77041;BME280;65974;42.664;23.264;2023-04-06T01:30:33;94073.78;;;-0.19;67.68
77041;BME280;65974;42.664;23.264;2023-04-06T01:32:59;94080.13;;;0.21;65.13
77041;BME280;65974;42.664;23.264;2023-04-06T01:35:26;94076.81;;;-0.38;66.73
77041;BME280;65974;42.664;23.264;2023-04-06T01:37:51;94069.44;;;-0.36;67.09
77041;BME280;65974;42.664;23.264;2023-04-06T01:40:16;94073.81;;;0.02;66.78
77041;BME280;65974;42.664;23.264;2023-04-06T01:42:42;94070.28;;;-0.03;65.39
77041;BME280;65974;42.664;23.264;2023-04-06T01:45:08;94069.75;;;-0.37;67.67
77041;BME280;65974;42.664;23.264;2023-04-06T01:47:35;94063.00;;;-0.18;67.39
77041;BME280;65974;42.664;23.264;2023-04-06T01:50:00;94067.84;;;0.13;66.22
77041;BME280;65974;42.664;23.264;2023-04-06T01:52:26;94062.97;;;-0.38;67.50
77041;BME280;65974;42.664;23.264;2023-04-06T01:54:51;94055.59;;;-0.36;67.48
77041;BME280;65974;42.664;23.264;2023-04-06T01:57:17;94054.44;;;-0.06;66.98
77041;BME280;65974;42.664;23.264;2023-04-06T01:59:43;94049.88;;;-0.09;66.41
77041;BME280;65974;42.664;23.264;2023-04-06T02:02:08;94049.72;;;-0.33;67.13
77041;BME280;65974;42.664;23.264;2023-04-06T02:04:34;94046.34;;;-0.13;67.12
77041;BME280;65974;42.664;23.264;2023-04-06T02:06:59;94051.97;;;0.30;65.49
77041;BME280;65974;42.664;23.264;2023-04-06T02:09:24;94047.75;;;-0.36;67.25
77041;BME280;65974;42.664;23.264;2023-04-06T02:11:50;94047.38;;;-0.26;67.06
77041;BME280;65974;42.664;23.264;2023-04-06T02:14:16;94046.44;;;0.11;65.74
77041;BME280;65974;42.664;23.264;2023-04-06T02:16:41;94046.81;;;-0.11;65.79
77041;BME280;65974;42.664;23.264;2023-04-06T02:19:06;94052.00;;;-0.32;67.04
77041;BME280;65974;42.664;23.264;2023-04-06T02:21:32;94049.41;;;-0.11;67.20
77041;BME280;65974;42.664;23.264;2023-04-06T02:23:57;94045.88;;;0.26;65.04
77041;BME280;65974;42.664;23.264;2023-04-06T02:26:23;94049.00;;;-0.42;67.20
77041;BME280;65974;42.664;23.264;2023-04-06T02:28:48;94047.88;;;-0.33;67.33
77041;BME280;65974;42.664;23.264;2023-04-06T02:31:14;94049.81;;;-0.01;67.01
77041;BME280;65974;42.664;23.264;2023-04-06T02:33:40;94050.75;;;-0.05;66.08
77041;BME280;65974;42.664;23.264;2023-04-06T02:36:06;94055.72;;;-0.33;67.67
77041;BME280;65974;42.664;23.264;2023-04-06T02:38:31;94057.72;;;-0.09;68.17
77041;BME280;65974;42.664;23.264;2023-04-06T02:40:57;94053.94;;;0.21;66.22
77041;BME280;65974;42.664;23.264;2023-04-06T02:43:22;94052.00;;;-0.32;67.08
77041;BME280;65974;42.664;23.264;2023-04-06T02:45:48;94049.34;;;-0.23;67.05
77041;BME280;65974;42.664;23.264;2023-04-06T02:48:13;94051.38;;;0.13;66.26
77041;BME280;65974;42.664;23.264;2023-04-06T02:50:39;94047.94;;;0.00;65.96
77041;BME280;65974;42.664;23.264;2023-04-06T02:53:04;94052.00;;;-0.32;67.41
77041;BME280;65974;42.664;23.264;2023-04-06T02:55:30;94046.34;;;-0.13;68.17
77041;BME280;65974;42.664;23.264;2023-04-06T02:57:55;94051.34;;;0.33;65.76
77041;BME280;65974;42.664;23.264;2023-04-06T03:00:21;94052.78;;;-0.31;67.37
77041;BME280;65974;42.664;23.264;2023-04-06T03:02:46;94048.00;;;-0.29;67.46
77041;BME280;65974;42.664;23.264;2023-04-06T03:05:12;94055.41;;;0.10;66.82
77041;BME280;65974;42.664;23.264;2023-04-06T03:07:37;94055.16;;;0.03;66.16
77041;BME280;65974;42.664;23.264;2023-04-06T03:10:03;94046.78;;;-0.32;67.77
77041;BME280;65974;42.664;23.264;2023-04-06T03:12:28;94045.69;;;-0.10;68.43
77041;BME280;65974;42.664;23.264;2023-04-06T03:14:54;94046.97;;;0.25;66.11
77041;BME280;65974;42.664;23.264;2023-04-06T03:17:19;94046.38;;;-0.42;68.13
77041;BME280;65974;42.664;23.264;2023-04-06T03:19:45;94049.66;;;-0.25;67.91
77041;BME280;65974;42.664;23.264;2023-04-06T03:22:10;94056.38;;;0.06;67.22
77041;BME280;65974;42.664;23.264;2023-04-06T03:24:36;94047.94;;;0.00;66.50
77041;BME280;65974;42.664;23.264;2023-04-06T03:27:01;94046.59;;;-0.27;67.50
77041;BME280;65974;42.664;23.264;2023-04-06T03:29:27;94044.75;;;-0.06;67.45
77041;BME280;65974;42.664;23.264;2023-04-06T03:31:54;94048.72;;;0.33;65.66
77041;BME280;65974;42.664;23.264;2023-04-06T03:34:20;94044.38;;;-0.37;67.69
77041;BME280;65974;42.664;23.264;2023-04-06T03:36:46;94046.59;;;-0.27;67.39
77041;BME280;65974;42.664;23.264;2023-04-06T03:39:12;94047.66;;;0.14;66.81
77041;BME280;65974;42.664;23.264;2023-04-06T03:41:37;94043.78;;;-0.01;66.59
77041;BME280;65974;42.664;23.264;2023-04-06T03:44:02;94034.75;;;-0.24;67.79
77041;BME280;65974;42.664;23.264;2023-04-06T03:46:28;94042.47;;;-0.07;67.70
77041;BME280;65974;42.664;23.264;2023-04-06T03:48:53;94045.75;;;0.23;65.97
77041;BME280;65974;42.664;23.264;2023-04-06T03:51:19;94039.31;;;-0.21;66.67
77041;BME280;65974;42.664;23.264;2023-04-06T03:53:45;94038.50;;;-0.13;67.05
77041;BME280;65974;42.664;23.264;2023-04-06T03:56:10;94040.69;;;0.18;66.20
77041;BME280;65974;42.664;23.264;2023-04-06T03:58:35;94033.13;;;0.04;65.65
77041;BME280;65974;42.664;23.264;2023-04-06T04:01:01;94035.19;;;-0.22;66.96
77041;BME280;65974;42.664;23.264;2023-04-06T04:03:26;94035.94;;;-0.01;66.71
77041;BME280;65974;42.664;23.264;2023-04-06T04:05:53;94038.59;;;0.32;65.48
77041;BME280;65974;42.664;23.264;2023-04-06T04:08:20;94040.41;;;-0.22;66.97
77041;BME280;65974;42.664;23.264;2023-04-06T04:10:45;94043.09;;;-0.10;66.88
77041;BME280;65974;42.664;23.264;2023-04-06T04:13:11;94043.25;;;0.26;65.82
77041;BME280;65974;42.664;23.264;2023-04-06T04:15:36;94040.66;;;0.06;65.68
77041;BME280;65974;42.664;23.264;2023-04-06T04:18:02;94049.88;;;-0.09;66.82
77041;BME280;65974;42.664;23.264;2023-04-06T04:20:27;94042.63;;;0.09;66.43
77041;BME280;65974;42.664;23.264;2023-04-06T04:22:53;94039.03;;;0.34;65.12
77041;BME280;65974;42.664;23.264;2023-04-06T04:25:19;94047.53;;;-0.11;66.03
77041;BME280;65974;42.664;23.264;2023-04-06T04:27:44;94039.00;;;0.01;66.32
77041;BME280;65974;42.664;23.264;2023-04-06T04:30:10;94043.94;;;0.35;65.16
77041;BME280;65974;42.664;23.264;2023-04-06T04:32:35;94038.59;;;0.11;65.11
77041;BME280;65974;42.664;23.264;2023-04-06T04:35:01;94046.75;;;-0.03;66.23
77041;BME280;65974;42.664;23.264;2023-04-06T04:37:27;94044.88;;;0.19;66.65
77041;BME280;65974;42.664;23.264;2023-04-06T04:39:52;94047.16;;;0.53;64.63
77041;BME280;65974;42.664;23.264;2023-04-06T04:42:17;94055.34;;;-0.02;65.93
77041;BME280;65974;42.664;23.264;2023-04-06T04:44:43;94049.72;;;0.08;66.11
77041;BME280;65974;42.664;23.264;2023-04-06T04:47:08;94046.38;;;0.40;65.29
77041;BME280;65974;42.664;23.264;2023-04-06T04:49:34;94046.78;;;0.10;65.66
77041;BME280;65974;42.664;23.264;2023-04-06T04:51:59;94050.56;;;0.00;66.87
77041;BME280;65974;42.664;23.264;2023-04-06T04:54:25;94030.56;;;0.16;66.45
77041;BME280;65974;42.664;23.264;2023-04-06T04:56:50;94039.16;;;0.49;64.61
77041;BME280;65974;42.664;23.264;2023-04-06T04:59:16;94042.56;;;-0.04;67.34
77041;BME280;65974;42.664;23.264;2023-04-06T05:01:42;94040.19;;;0.24;66.20
77041;BME280;65974;42.664;23.264;2023-04-06T05:04:07;94033.88;;;0.70;64.78
77041;BME280;65974;42.664;23.264;2023-04-06T05:06:33;94029.09;;;0.39;64.97
77041;BME280;65974;42.664;23.264;2023-04-06T05:08:58;94032.22;;;0.21;66.04
77041;BME280;65974;42.664;23.264;2023-04-06T05:11:24;94035.22;;;0.43;65.87
77041;BME280;65974;42.664;23.264;2023-04-06T05:13:50;94034.31;;;0.72;64.01
77041;BME280;65974;42.664;23.264;2023-04-06T05:16:16;94029.69;;;0.12;66.15
77041;BME280;65974;42.664;23.264;2023-04-06T05:18:42;94030.50;;;0.37;65.98
77041;BME280;65974;42.664;23.264;2023-04-06T05:21:07;94021.09;;;0.68;65.24
77041;BME280;65974;42.664;23.264;2023-04-06T05:23:33;94037.97;;;0.47;65.54
77041;BME280;65974;42.664;23.264;2023-04-06T05:25:58;94033.56;;;0.39;66.27
77041;BME280;65974;42.664;23.264;2023-04-06T05:28:24;94037.25;;;0.70;65.91
77041;BME280;65974;42.664;23.264;2023-04-06T05:30:49;94029.75;;;0.81;64.55
77041;BME280;65974;42.664;23.264;2023-04-06T05:33:15;94027.97;;;0.28;66.16
77041;BME280;65974;42.664;23.264;2023-04-06T05:35:41;94036.03;;;0.56;66.33
77041;BME280;65974;42.664;23.264;2023-04-06T05:38:08;94028.38;;;0.96;64.21
77041;BME280;65974;42.664;23.264;2023-04-06T05:40:35;94034.81;;;0.53;64.95
77041;BME280;65974;42.664;23.264;2023-04-06T05:43:02;94033.72;;;0.42;65.75
77041;BME280;65974;42.664;23.264;2023-04-06T05:45:27;94033.22;;;0.73;65.89
77041;BME280;65974;42.664;23.264;2023-04-06T05:47:53;94027.03;;;0.90;64.04
77041;BME280;65974;42.664;23.264;2023-04-06T05:50:18;94023.75;;;0.36;66.41
77041;BME280;65974;42.664;23.264;2023-04-06T05:52:44;94026.22;;;0.65;66.83
77041;BME280;65974;42.664;23.264;2023-04-06T05:55:11;94033.59;;;1.08;65.17
77041;BME280;65974;42.664;23.264;2023-04-06T05:57:37;94028.50;;;0.54;66.18
77041;BME280;65974;42.664;23.264;2023-04-06T06:00:04;94027.88;;;0.57;66.30
77041;BME280;65974;42.664;23.264;2023-04-06T06:02:31;94027.25;;;0.97;65.47
77041;BME280;65974;42.664;23.264;2023-04-06T06:04:58;94019.50;;;0.88;64.71
77041;BME280;65974;42.664;23.264;2023-04-06T06:07:23;94022.41;;;0.62;66.34
77041;BME280;65974;42.664;23.264;2023-04-06T06:09:49;94025.31;;;0.94;65.70
77041;BME280;65974;42.664;23.264;2023-04-06T06:12:14;94022.56;;;1.26;64.10
77041;BME280;65974;42.664;23.264;2023-04-06T06:14:40;94019.34;;;0.60;66.22
77041;BME280;65974;42.664;23.264;2023-04-06T06:17:05;94024.16;;;0.70;65.81
77041;BME280;65974;42.664;23.264;2023-04-06T06:19:31;94023.53;;;1.22;64.46
77041;BME280;65974;42.664;23.264;2023-04-06T06:21:56;94021.34;;;0.88;64.74
77041;BME280;65974;42.664;23.264;2023-04-06T06:24:22;94025.16;;;0.66;65.95
77041;BME280;65974;42.664;23.264;2023-04-06T06:26:47;94021.38;;;1.00;66.00
77041;BME280;65974;42.664;23.264;2023-04-06T06:29:14;94020.16;;;1.33;63.75
77041;BME280;65974;42.664;23.264;2023-04-06T06:31:40;94016.97;;;0.79;65.66
77041;BME280;65974;42.664;23.264;2023-04-06T06:34:05;94012.63;;;1.08;66.17
77041;BME280;65974;42.664;23.264;2023-04-06T06:36:31;94003.50;;;1.53;63.63
77041;BME280;65974;42.664;23.264;2023-04-06T06:38:57;94018.41;;;1.01;64.05
77041;BME280;65974;42.664;23.264;2023-04-06T06:41:24;94022.78;;;0.97;64.75
77041;BME280;65974;42.664;23.264;2023-04-06T06:43:51;94018.19;;;1.42;64.50
77041;BME280;65974;42.664;23.264;2023-04-06T06:46:16;94010.88;;;1.36;63.04
77041;BME280;65974;42.664;23.264;2023-04-06T06:48:42;94025.50;;;0.89;65.16
77041;BME280;65974;42.664;23.264;2023-04-06T06:51:07;94033.06;;;1.14;65.37
77041;BME280;65974;42.664;23.264;2023-04-06T06:53:34;94022.44;;;1.59;63.88
77041;BME280;65974;42.664;23.264;2023-04-06T06:56:00;94026.50;;;1.08;65.13
77041;BME280;65974;42.664;23.264;2023-04-06T06:58:26;94031.19;;;1.27;64.91
77041;BME280;65974;42.664;23.264;2023-04-06T07:00:58;94021.41;;;1.76;63.50
77041;BME280;65974;42.664;23.264;2023-04-06T07:03:24;94023.22;;;1.60;63.23
77041;BME280;65974;42.664;23.264;2023-04-06T07:05:50;94023.97;;;1.48;63.84
77041;BME280;65974;42.664;23.264;2023-04-06T07:08:21;94019.31;;;1.81;63.15
77041;BME280;65974;42.664;23.264;2023-04-06T07:10:47;94016.34;;;1.95;61.48
77041;BME280;65974;42.664;23.264;2023-04-06T07:13:14;94018.53;;;1.29;63.80
77041;BME280;65974;42.664;23.264;2023-04-06T07:15:45;94022.88;;;1.49;64.11
77041;BME280;65974;42.664;23.264;2023-04-06T07:18:11;94017.13;;;2.11;61.42
77041;BME280;65974;42.664;23.264;2023-04-06T07:20:37;94023.41;;;1.54;63.36
77041;BME280;65974;42.664;23.264;2023-04-06T07:23:03;94018.38;;;1.62;63.44
77041;BME280;65974;42.664;23.264;2023-04-06T07:25:29;94018.25;;;2.10;61.99
77041;BME280;65974;42.664;23.264;2023-04-06T07:27:55;94016.84;;;2.00;61.79
77041;BME280;65974;42.664;23.264;2023-04-06T07:30:21;94028.53;;;1.63;62.59
77041;BME280;65974;42.664;23.264;2023-04-06T07:32:47;94018.22;;;1.82;62.36
77041;BME280;65974;42.664;23.264;2023-04-06T07:35:14;94005.50;;;2.24;60.52
77041;BME280;65974;42.664;23.264;2023-04-06T07:37:39;94020.03;;;1.66;62.23
77041;BME280;65974;42.664;23.264;2023-04-06T07:40:05;94011.00;;;1.79;62.30
77041;BME280;65974;42.664;23.264;2023-04-06T07:42:32;94011.84;;;2.23;61.53
77041;BME280;65974;42.664;23.264;2023-04-06T07:44:58;94013.56;;;2.03;61.33
77041;BME280;65974;42.664;23.264;2023-04-06T07:47:23;94013.41;;;1.84;62.80
77041;BME280;65974;42.664;23.264;2023-04-06T07:49:49;94008.94;;;2.12;62.56
77041;BME280;65974;42.664;23.264;2023-04-06T07:52:15;94007.78;;;2.53;60.98
77041;BME280;65974;42.664;23.264;2023-04-06T07:54:40;94015.81;;;1.89;62.25
77041;BME280;65974;42.664;23.264;2023-04-06T07:57:07;94010.88;;;2.15;62.42
77041;BME280;65974;42.664;23.264;2023-04-06T07:59:32;94008.38;;;2.62;61.69
77041;BME280;65974;42.664;23.264;2023-04-06T08:01:58;94010.19;;;2.30;61.36
77041;BME280;65974;42.664;23.264;2023-04-06T08:04:23;94012.44;;;2.16;62.81
77041;BME280;65974;42.664;23.264;2023-04-06T08:06:49;94011.25;;;2.57;61.81
77041;BME280;65974;42.664;23.264;2023-04-06T08:09:14;94016.22;;;2.74;60.43
77041;BME280;65974;42.664;23.264;2023-04-06T08:11:40;94017.13;;;2.11;61.65
77041;BME280;65974;42.664;23.264;2023-04-06T08:14:05;94017.13;;;2.38;61.85
77041;BME280;65974;42.664;23.264;2023-04-06T08:16:31;94015.28;;;2.82;59.27
77041;BME280;65974;42.664;23.264;2023-04-06T08:18:56;94015.53;;;2.06;61.26
77041;BME280;65974;42.664;23.264;2023-04-06T08:21:22;94017.28;;;2.30;62.11
77041;BME280;65974;42.664;23.264;2023-04-06T08:23:47;94016.53;;;2.73;60.57
77041;BME280;65974;42.664;23.264;2023-04-06T08:26:13;94010.34;;;2.65;59.61
77041;BME280;65974;42.664;23.264;2023-04-06T08:28:38;94020.25;;;2.28;61.03
77041;BME280;65974;42.664;23.264;2023-04-06T08:31:07;94018.84;;;2.74;58.59
77041;BME280;65974;42.664;23.264;2023-04-06T08:33:33;94012.91;;;3.08;57.03
77041;BME280;65974;42.664;23.264;2023-04-06T08:36:11;94018.75;;;2.27;59.15
77041;BME280;65974;42.664;23.264;2023-04-06T08:38:37;94022.09;;;2.56;59.10
77041;BME280;65974;42.664;23.264;2023-04-06T08:41:08;94022.75;;;3.11;57.04
77041;BME280;65974;42.664;23.264;2023-04-06T08:43:58;94013.97;;;2.61;58.03
77041;BME280;65974;42.664;23.264;2023-04-06T08:46:24;94023.41;;;2.34;59.47
77041;BME280;65974;42.664;23.264;2023-04-06T08:48:58;94030.47;;;2.89;58.51
77041;BME280;65974;42.664;23.264;2023-04-06T08:51:25;94026.63;;;2.71;57.46
77041;BME280;65974;42.664;23.264;2023-04-06T08:53:55;94027.06;;;2.45;59.06
77041;BME280;65974;42.664;23.264;2023-04-06T08:56:22;94026.72;;;2.90;58.19
77041;BME280;65974;42.664;23.264;2023-04-06T08:58:48;94023.00;;;2.91;56.46
77041;BME280;65974;42.664;23.264;2023-04-06T09:01:17;94023.09;;;2.35;58.84
77041;BME280;65974;42.664;23.264;2023-04-06T09:03:43;94017.06;;;2.35;58.48
77041;BME280;65974;42.664;23.264;2023-04-06T09:06:10;94014.34;;;2.90;57.59
77041;BME280;65974;42.664;23.264;2023-04-06T09:08:39;94015.63;;;2.38;59.05
77041;BME280;65974;42.664;23.264;2023-04-06T09:11:05;94016.53;;;2.57;59.70
77041;BME280;65974;42.664;23.264;2023-04-06T09:13:32;94011.72;;;3.06;58.48
77041;BME280;65974;42.664;23.264;2023-04-06T09:16:09;94018.25;;;2.81;57.79
77041;BME280;65974;42.664;23.264;2023-04-06T09:18:34;94010.13;;;2.43;59.48
77041;BME280;65974;42.664;23.264;2023-04-06T09:21:01;94018.41;;;2.72;59.28
77041;BME280;65974;42.664;23.264;2023-04-06T09:23:27;94010.69;;;3.26;55.90
77041;BME280;65974;42.664;23.264;2023-04-06T09:26:12;94015.50;;;2.62;57.78
77041;BME280;65974;42.664;23.264;2023-04-06T09:28:48;94004.84;;;2.86;57.79
77041;BME280;65974;42.664;23.264;2023-04-06T09:31:21;94012.22;;;3.43;56.09
77041;BME280;65974;42.664;23.264;2023-04-06T09:33:47;94014.25;;;2.71;57.98
77041;BME280;65974;42.664;23.264;2023-04-06T09:36:13;94007.88;;;2.88;58.01
77041;BME280;65974;42.664;23.264;2023-04-06T09:38:58;94009.72;;;3.50;56.25
77041;BME280;65974;42.664;23.264;2023-04-06T09:41:30;94003.72;;;3.18;55.57
77041;BME280;65974;42.664;23.264;2023-04-06T09:44:11;94002.22;;;3.01;56.60
77041;BME280;65974;42.664;23.264;2023-04-06T09:46:39;94004.25;;;3.58;55.24
77041;BME280;65974;42.664;23.264;2023-04-06T09:49:05;94000.97;;;3.46;54.73
77041;BME280;65974;42.664;23.264;2023-04-06T09:52:19;94004.41;;;2.99;56.60
77041;BME280;65974;42.664;23.264;2023-04-06T09:54:28;93996.31;;;3.39;55.04
77041;BME280;65974;42.664;23.264;2023-04-06T09:56:58;94006.94;;;3.43;54.34
77041;BME280;65974;42.664;23.264;2023-04-06T10:01:55;93999.47;;;3.45;56.28
77041;BME280;65974;42.664;23.264;2023-04-06T10:07:07;94005.09;;;3.28;55.71
77041;BME280;65974;42.664;23.264;2023-04-06T10:09:37;94005.59;;;3.17;55.83
77041;BME280;65974;42.664;23.264;2023-04-06T10:12:06;93996.69;;;3.91;54.56
77041;BME280;65974;42.664;23.264;2023-04-06T10:14:35;94011.50;;;3.46;53.78
77041;BME280;65974;42.664;23.264;2023-04-06T10:17:04;93984.25;;;3.73;54.20
77041;BME280;65974;42.664;23.264;2023-04-06T10:19:44;93996.69;;;4.49;52.00
77041;BME280;65974;42.664;23.264;2023-04-06T10:22:18;93999.59;;;4.44;51.16
77041;BME280;65974;42.664;23.264;2023-04-06T10:24:45;93991.97;;;4.20;52.50
77041;BME280;65974;42.664;23.264;2023-04-06T10:27:11;93980.75;;;4.64;52.15
77041;BME280;65974;42.664;23.264;2023-04-06T10:29:47;93979.31;;;5.12;50.60
77041;BME280;65974;42.664;23.264;2023-04-06T10:32:14;93976.31;;;4.27;51.57
77041;BME280;65974;42.664;23.264;2023-04-06T10:34:39;93982.19;;;4.81;52.90
77041;BME280;65974;42.664;23.264;2023-04-06T10:37:15;93965.94;;;5.54;49.40
77041;BME280;65974;42.664;23.264;2023-04-06T10:39:54;93966.75;;;4.60;51.28
77041;BME280;65974;42.664;23.264;2023-04-06T10:42:42;93969.97;;;4.73;51.87
77041;BME280;65974;42.664;23.264;2023-04-06T10:45:19;93961.84;;;5.30;50.72
77041;BME280;65974;42.664;23.264;2023-04-06T10:47:45;93975.94;;;4.47;51.91
77041;BME280;65974;42.664;23.264;2023-04-06T10:50:14;93965.91;;;4.34;52.90
77041;BME280;65974;42.664;23.264;2023-04-06T10:52:40;93968.16;;;5.00;51.65
77041;BME280;65974;42.664;23.264;2023-04-06T10:55:08;93967.50;;;4.84;51.67
77041;BME280;65974;42.664;23.264;2023-04-06T10:57:36;93965.50;;;4.54;53.19
77041;BME280;65974;42.664;23.264;2023-04-06T11:00:04;93969.59;;;5.20;51.15
77041;BME280;65974;42.664;23.264;2023-04-06T11:02:30;93971.84;;;5.18;51.12
77041;BME280;65974;42.664;23.264;2023-04-06T11:04:57;93961.47;;;4.38;52.23
77041;BME280;65974;42.664;23.264;2023-04-06T11:07:26;93955.28;;;4.72;52.31
77041;BME280;65974;42.664;23.264;2023-04-06T11:09:52;93963.91;;;5.40;50.41
77041;BME280;65974;42.664;23.264;2023-04-06T11:12:28;93961.13;;;4.62;51.66
77041;BME280;65974;42.664;23.264;2023-04-06T11:14:59;93952.88;;;4.63;52.42
77041;BME280;65974;42.664;23.264;2023-04-06T11:17:33;93959.59;;;5.32;50.37
77041;BME280;65974;42.664;23.264;2023-04-06T11:19:59;93942.25;;;4.60;51.34
77041;BME280;65974;42.664;23.264;2023-04-06T11:22:26;93945.81;;;4.26;52.72
77041;BME280;65974;42.664;23.264;2023-04-06T11:24:52;93957.69;;;4.81;51.89
77041;BME280;65974;42.664;23.264;2023-04-06T11:27:21;93951.84;;;4.94;51.32
77041;BME280;65974;42.664;23.264;2023-04-06T11:29:47;93953.97;;;4.21;53.04
77041;BME280;65974;42.664;23.264;2023-04-06T11:32:20;93946.88;;;4.44;53.54
77041;BME280;65974;42.664;23.264;2023-04-06T11:34:47;93943.69;;;4.77;51.75
77041;BME280;65974;42.664;23.264;2023-04-06T11:37:12;93941.44;;;4.14;53.46
77041;BME280;65974;42.664;23.264;2023-04-06T11:42:09;93941.03;;;4.77;52.23
77041;BME280;65974;42.664;23.264;2023-04-06T11:44:35;93939.88;;;4.51;52.59
77041;BME280;65974;42.664;23.264;2023-04-06T11:47:05;93940.59;;;4.29;52.16
77041;BME280;65974;42.664;23.264;2023-04-06T11:49:33;93937.69;;;4.80;50.33
77041;BME280;65974;42.664;23.264;2023-04-06T11:52:01;93928.22;;;4.33;51.43
77041;BME280;65974;42.664;23.264;2023-04-06T11:54:34;93932.00;;;4.13;53.11
77041;BME280;65974;42.664;23.264;2023-04-06T11:57:04;93928.28;;;4.37;52.70
77041;BME280;65974;42.664;23.264;2023-04-06T11:59:34;93926.19;;;4.46;51.60
77041;BME280;65974;42.664;23.264;2023-04-06T12:02:01;93932.22;;;4.05;52.90
77041;BME280;65974;42.664;23.264;2023-04-06T12:04:27;93927.06;;;4.31;52.81
77041;BME280;65974;42.664;23.264;2023-04-06T12:06:54;93924.50;;;4.80;51.58
77041;BME280;65974;42.664;23.264;2023-04-06T12:09:19;93927.28;;;4.22;53.14
77041;BME280;65974;42.664;23.264;2023-04-06T12:11:45;93923.13;;;4.21;52.70
77041;BME280;65974;42.664;23.264;2023-04-06T12:14:12;93919.44;;;4.71;51.77
77041;BME280;65974;42.664;23.264;2023-04-06T12:16:38;93924.28;;;4.43;51.56
77041;BME280;65974;42.664;23.264;2023-04-06T12:19:06;93921.25;;;4.03;52.09
77041;BME280;65974;42.664;23.264;2023-04-06T12:21:32;93917.00;;;4.36;52.39
77041;BME280;65974;42.664;23.264;2023-04-06T12:23:59;93919.50;;;4.52;50.55
77041;BME280;65974;42.664;23.264;2023-04-06T12:26:26;93924.75;;;4.07;52.06
77041;BME280;65974;42.664;23.264;2023-04-06T12:28:52;93929.41;;;4.36;52.45
77041;BME280;65974;42.664;23.264;2023-04-06T12:31:20;93920.69;;;4.77;50.16
77041;BME280;65974;42.664;23.264;2023-04-06T12:33:50;93921.31;;;4.25;51.16
77041;BME280;65974;42.664;23.264;2023-04-06T12:36:18;93924.22;;;4.20;51.36
77041;BME280;65974;42.664;23.264;2023-04-06T12:38:47;93916.88;;;4.75;50.11
77041;BME280;65974;42.664;23.264;2023-04-06T12:41:13;93920.91;;;4.46;50.18
77041;BME280;65974;42.664;23.264;2023-04-06T12:43:40;93922.00;;;4.22;50.73
77041;BME280;65974;42.664;23.264;2023-04-06T12:46:05;93915.81;;;4.56;49.56
77041;BME280;65974;42.664;23.264;2023-04-06T12:48:31;93901.94;;;4.59;50.36
77041;BME280;65974;42.664;23.264;2023-04-06T12:50:59;93910.97;;;4.36;50.85
77041;BME280;65974;42.664;23.264;2023-04-06T12:53:25;93914.19;;;4.71;49.88
77041;BME280;65974;42.664;23.264;2023-04-06T12:55:52;93911.69;;;5.04;49.21
77041;BME280;65974;42.664;23.264;2023-04-06T12:58:19;93912.22;;;4.23;50.74
77041;BME280;65974;42.664;23.264;2023-04-06T13:00:44;93906.50;;;4.40;51.09
77041;BME280;65974;42.664;23.264;2023-04-06T13:03:10;93904.16;;;4.80;50.16